createdAt,value
2018-12-18T00:00:11.179Z,93.30
2018-12-18T00:02:39.402Z,93.80
2018-12-18T00:08:10.074Z,93.30
2018-12-18T00:10:44.062Z,93.00
2018-12-18T00:13:12.548Z,92.70
2018-12-18T00:15:40.872Z,93.00
2018-12-18T00:18:09.252Z,92.90
2018-12-18T00:20:37.508Z,92.70
2018-12-18T00:23:05.771Z,92.10
2018-12-18T00:25:34.035Z,92.40
2018-12-18T00:28:02.300Z,92.00
2018-12-18T00:30:30.550Z,92.40
2018-12-18T00:32:58.826Z,92.70
2018-12-18T00:35:27.105Z,92.40
2018-12-18T00:37:55.338Z,92.30
2018-12-18T00:40:24.151Z,92.20
2018-12-18T00:42:52.411Z,92.50
2018-12-18T00:45:20.658Z,93.20
2018-12-18T00:47:49.550Z,93.60
2018-12-18T00:50:17.809Z,93.30
2018-12-18T00:52:46.058Z,94.10
2018-12-18T00:55:14.342Z,95.00
2018-12-18T00:57:44.123Z,94.70
2018-12-18T01:00:12.378Z,95.10
2018-12-18T01:02:40.870Z,94.50
2018-12-18T01:05:09.207Z,95.00
2018-12-18T01:07:37.570Z,95.00
2018-12-18T01:10:06.930Z,94.70
2018-12-18T01:12:35.185Z,94.80
2018-12-18T01:15:04.487Z,95.00
2018-12-18T01:17:32.761Z,94.90
2018-12-18T01:20:01.018Z,94.90
2018-12-18T01:22:29.271Z,94.30
2018-12-18T01:24:57.750Z,93.90
2018-12-18T01:27:25.999Z,93.50
2018-12-18T01:29:54.255Z,94.10
2018-12-18T01:32:22.543Z,94.30
2018-12-18T01:34:50.827Z,94.50
2018-12-18T01:37:19.082Z,94.30
2018-12-18T01:39:47.359Z,94.40
2018-12-18T01:42:16.639Z,94.20
2018-12-18T01:44:44.895Z,94.10
2018-12-18T01:47:13.476Z,94.50
2018-12-18T01:49:42.135Z,93.80
2018-12-18T01:52:10.382Z,93.20
2018-12-18T01:54:38.662Z,93.40
2018-12-18T01:57:06.923Z,93.30
2018-12-18T01:59:35.191Z,93.80
2018-12-18T02:02:03.478Z,92.90
2018-12-18T02:04:31.735Z,94.00
2018-12-18T02:06:59.999Z,93.30
2018-12-18T02:09:28.578Z,93.40
2018-12-18T02:11:56.855Z,93.50
2018-12-18T02:14:25.150Z,93.60
2018-12-18T02:16:53.434Z,94.30
2018-12-18T02:19:22.171Z,94.10
2018-12-18T02:21:50.425Z,95.50
2018-12-18T02:24:18.717Z,95.60
2018-12-18T02:26:46.970Z,95.30
2018-12-18T02:29:15.226Z,95.20
2018-12-18T02:31:43.686Z,95.30
2018-12-18T02:34:13.958Z,96.00
2018-12-18T02:36:42.211Z,95.60
2018-12-18T02:39:10.488Z,95.40
2018-12-18T02:41:38.749Z,95.40
2018-12-18T02:44:07.018Z,95.10
2018-12-18T02:46:35.321Z,95.80
2018-12-18T02:49:03.658Z,94.80
2018-12-18T02:51:32.175Z,95.10
2018-12-18T02:54:00.854Z,94.80
2018-12-18T02:56:29.117Z,95.00
2018-12-18T02:58:57.369Z,94.80
2018-12-18T03:01:25.646Z,94.90
2018-12-18T03:03:53.979Z,94.50
2018-12-18T03:06:22.251Z,94.50
2018-12-18T03:08:50.622Z,93.90
2018-12-18T03:11:20.676Z,94.20
2018-12-18T03:13:48.952Z,93.80
2018-12-18T03:16:17.597Z,93.80
2018-12-18T03:18:46.292Z,93.30
2018-12-18T03:21:15.949Z,93.30
2018-12-18T03:23:44.523Z,93.10
2018-12-18T03:26:12.779Z,93.60
2018-12-18T03:28:41.034Z,93.90
2018-12-18T03:31:09.335Z,93.20
2018-12-18T03:33:37.694Z,93.20
2018-12-18T03:36:06.070Z,93.50
2018-12-18T03:38:34.408Z,93.90
2018-12-18T03:41:03.070Z,94.50
2018-12-18T03:43:31.323Z,93.40
2018-12-18T03:45:59.595Z,93.60
2018-12-18T03:48:27.856Z,92.50
2018-12-18T03:50:56.142Z,92.90
2018-12-18T03:53:24.789Z,95.00
2018-12-18T03:55:53.055Z,95.30
2018-12-18T03:58:21.486Z,95.10
2018-12-18T04:00:50.366Z,95.40
2018-12-18T04:03:18.606Z,95.50
2018-12-18T04:05:46.858Z,94.90
2018-12-18T04:08:15.148Z,93.80
2018-12-18T04:10:43.402Z,93.80
2018-12-18T04:13:11.658Z,94.00
2018-12-18T04:15:40.314Z,95.00
2018-12-18T04:18:09.748Z,96.50
2018-12-18T04:20:38.217Z,96.50
2018-12-18T04:23:06.698Z,96.60
2018-12-18T04:25:34.950Z,96.60
2018-12-18T04:28:03.206Z,96.10
2018-12-18T04:30:31.483Z,96.60
2018-12-18T04:33:00.010Z,96.80
2018-12-18T04:35:28.244Z,96.90
2018-12-18T04:37:56.531Z,96.60
2018-12-18T04:40:25.434Z,97.00
2018-12-18T04:42:53.700Z,96.60
2018-12-18T04:45:22.318Z,96.20
2018-12-18T04:47:50.596Z,95.80
2018-12-18T04:50:20.843Z,96.40
2018-12-18T04:52:49.297Z,96.40
2018-12-18T04:55:17.657Z,96.00
2018-12-18T04:57:45.926Z,96.00
2018-12-18T05:00:14.203Z,95.90
2018-12-18T05:02:42.459Z,95.40
2018-12-18T05:05:10.803Z,95.20
2018-12-18T05:07:39.228Z,95.20
2018-12-18T05:10:07.560Z,95.30
2018-12-18T05:12:35.821Z,95.40
2018-12-18T05:15:06.264Z,95.60
2018-12-18T05:17:34.729Z,95.90
2018-12-18T05:20:03.341Z,96.10
2018-12-18T05:22:31.610Z,95.70
2018-12-18T05:24:59.875Z,96.00
2018-12-18T05:27:28.123Z,95.80
2018-12-18T05:29:56.568Z,95.80
2018-12-18T05:32:24.817Z,95.90
2018-12-18T05:34:56.522Z,95.90
2018-12-18T05:37:23.626Z,96.10
2018-12-18T05:39:51.887Z,96.10
2018-12-18T05:42:20.160Z,96.00
2018-12-18T05:44:48.450Z,95.90
2018-12-18T05:47:16.939Z,96.00
2018-12-18T05:49:45.200Z,96.20
2018-12-18T05:52:13.781Z,96.40
2018-12-18T05:54:42.038Z,96.90
2018-12-18T05:57:10.695Z,96.90
2018-12-18T05:59:38.969Z,97.00
2018-12-18T06:02:07.218Z,97.20
2018-12-18T06:04:35.784Z,97.20
2018-12-18T06:07:04.056Z,97.80
2018-12-18T06:09:32.306Z,97.80
2018-12-18T06:12:00.610Z,98.00
2018-12-18T06:14:28.926Z,97.90
2018-12-18T06:16:57.183Z,98.50
2018-12-18T06:19:25.463Z,98.50
2018-12-18T06:21:54.883Z,98.80
2018-12-18T06:24:23.135Z,97.90
2018-12-18T06:26:51.505Z,98.70
2018-12-18T06:29:19.787Z,98.50
2018-12-18T06:31:48.064Z,98.60
2018-12-18T06:34:16.374Z,98.40
2018-12-18T06:36:44.926Z,97.60
2018-12-18T06:39:13.254Z,97.90
2018-12-18T06:41:41.515Z,97.10
2018-12-18T06:44:10.001Z,97.10
2018-12-18T06:46:38.288Z,97.30
2018-12-18T06:49:06.538Z,96.30
2018-12-18T06:51:34.810Z,96.50
2018-12-18T06:54:03.071Z,97.20
2018-12-18T06:56:31.335Z,97.00
2018-12-18T06:59:00.340Z,96.60
2018-12-18T07:01:28.624Z,97.40
2018-12-18T07:03:56.879Z,97.80
2018-12-18T07:06:25.264Z,98.00
2018-12-18T07:08:53.495Z,96.80
2018-12-18T07:11:21.747Z,95.90
2018-12-18T07:13:50.043Z,95.80
2018-12-18T07:16:18.303Z,96.10
2018-12-18T07:18:46.568Z,97.70
2018-12-18T07:21:15.432Z,97.10
2018-12-18T07:23:43.705Z,97.00
2018-12-18T07:26:11.958Z,96.90
2018-12-18T07:28:40.349Z,96.90
2018-12-18T07:31:08.606Z,97.70
2018-12-18T07:33:36.867Z,98.30
2018-12-18T07:36:05.167Z,98.30
2018-12-18T07:38:33.403Z,98.50
2018-12-18T07:41:01.663Z,99.50
2018-12-18T07:43:30.244Z,99.90
2018-12-18T07:45:58.509Z,99.50
2018-12-18T07:48:26.743Z,99.10
2018-12-18T07:50:55.030Z,99.00
2018-12-18T07:53:23.285Z,98.30
2018-12-18T07:55:51.818Z,99.70
2018-12-18T07:58:20.094Z,99.90
2018-12-18T08:00:48.835Z,99.90
2018-12-18T08:03:17.091Z,99.90
2018-12-18T08:05:45.954Z,99.90
2018-12-18T08:08:14.227Z,99.90
2018-12-18T08:10:43.847Z,99.90
2018-12-18T08:13:12.094Z,99.90
2018-12-18T08:15:40.351Z,99.90
2018-12-18T08:18:08.612Z,99.90
2018-12-18T08:20:36.921Z,99.90
2018-12-18T08:23:05.164Z,99.90
2018-12-18T08:25:33.414Z,99.90
2018-12-18T08:28:02.150Z,99.90
2018-12-18T08:30:30.415Z,99.90
2018-12-18T08:32:58.666Z,99.90
2018-12-18T08:35:26.955Z,99.90
2018-12-18T08:37:55.211Z,99.90
2018-12-18T08:40:23.469Z,99.90
2018-12-18T08:42:51.762Z,99.90
2018-12-18T08:45:20.043Z,99.90
2018-12-18T08:47:48.506Z,99.90
2018-12-18T08:50:16.827Z,99.90
2018-12-18T08:52:45.079Z,99.90
2018-12-18T08:55:14.346Z,99.90
2018-12-18T08:57:58.959Z,99.90
2018-12-18T09:00:27.198Z,99.90
2018-12-18T09:02:55.598Z,99.90
2018-12-18T09:05:24.249Z,99.90
2018-12-18T09:07:52.506Z,99.90
2018-12-18T09:10:20.817Z,99.90
2018-12-18T09:12:49.710Z,99.90
2018-12-18T09:15:23.616Z,99.90
2018-12-18T09:17:51.886Z,99.90
2018-12-18T09:20:20.182Z,99.90
2018-12-18T09:22:48.418Z,99.90
2018-12-18T09:25:17.131Z,99.90
2018-12-18T09:27:45.444Z,99.80
2018-12-18T09:30:13.700Z,98.50
2018-12-18T09:32:41.977Z,98.80
2018-12-18T09:35:10.234Z,99.70
2018-12-18T09:37:38.486Z,99.90
2018-12-18T09:40:06.915Z,99.90
2018-12-18T09:42:40.750Z,99.90
2018-12-18T09:45:09.384Z,99.90
2018-12-18T09:47:37.665Z,99.90
2018-12-18T09:50:06.271Z,99.90
2018-12-18T09:52:34.795Z,99.90
2018-12-18T09:55:03.208Z,99.90
2018-12-18T09:57:37.038Z,99.90
2018-12-18T10:00:07.642Z,99.90
2018-12-18T10:02:35.898Z,99.90
2018-12-18T10:05:05.190Z,97.30
2018-12-18T10:07:33.455Z,99.90
2018-12-18T10:10:01.718Z,99.90
2018-12-18T10:12:35.805Z,99.90
2018-12-18T10:15:05.017Z,99.90
2018-12-18T10:17:33.270Z,98.30
2018-12-18T10:20:01.561Z,93.70
2018-12-18T10:22:29.831Z,88.90
2018-12-18T10:24:58.096Z,90.30
2018-12-18T10:27:26.638Z,93.90
2018-12-18T10:29:54.906Z,94.40
2018-12-18T10:32:23.155Z,99.70
2018-12-18T10:34:51.516Z,99.30
2018-12-18T10:37:19.763Z,88.40
2018-12-18T10:39:49.302Z,79.30
2018-12-18T10:42:17.601Z,87.40
2018-12-18T10:44:46.076Z,90.10
2018-12-18T10:47:14.346Z,88.80
2018-12-18T10:49:43.221Z,75.30
2018-12-18T10:52:11.482Z,78.90
2018-12-18T10:54:39.750Z,83.90
2018-12-18T10:57:08.035Z,82.10
2018-12-18T10:59:36.294Z,79.70
2018-12-18T11:02:04.919Z,87.90
2018-12-18T11:04:33.438Z,87.00
2018-12-18T11:07:02.139Z,80.20
2018-12-18T11:09:30.389Z,86.10
2018-12-18T11:11:59.052Z,95.60
2018-12-18T11:14:27.290Z,92.80
2018-12-18T11:16:55.545Z,98.60
2018-12-18T11:19:23.894Z,92.20
2018-12-18T11:21:52.130Z,70.20
2018-12-18T11:24:21.539Z,84.80
2018-12-18T11:26:49.822Z,90.00
2018-12-18T11:29:18.091Z,90.00
2018-12-18T11:31:46.363Z,73.60
2018-12-18T11:34:14.976Z,75.90
2018-12-18T11:36:43.241Z,73.20
2018-12-18T11:39:11.511Z,68.40
2018-12-18T11:41:40.419Z,75.20
2018-12-18T11:44:08.816Z,66.50
2018-12-18T11:46:38.099Z,64.80
2018-12-18T11:49:06.382Z,57.80
2018-12-18T11:51:34.680Z,70.20
2018-12-18T11:54:02.946Z,73.50
2018-12-18T11:56:31.618Z,69.30
2018-12-18T11:58:59.975Z,66.50
2018-12-18T12:01:28.242Z,62.80
2018-12-18T12:03:56.691Z,63.30
2018-12-18T12:06:24.962Z,57.40
2018-12-18T12:08:53.459Z,60.90
2018-12-18T12:11:22.235Z,57.40
2018-12-18T12:13:50.668Z,63.20
2018-12-18T12:16:18.958Z,64.20
2018-12-18T12:18:47.645Z,58.90
2018-12-18T12:21:15.963Z,57.90
2018-12-18T12:23:44.245Z,52.20
2018-12-18T12:26:18.126Z,53.40
2018-12-18T12:28:46.405Z,58.20
2018-12-18T12:31:16.560Z,60.10
2018-12-18T12:33:45.060Z,55.00
2018-12-18T12:36:13.318Z,52.10
2018-12-18T12:38:41.663Z,53.50
2018-12-18T12:41:10.248Z,57.30
2018-12-18T12:43:38.579Z,57.30
2018-12-18T12:46:06.835Z,60.10
2018-12-18T12:48:40.735Z,57.60
2018-12-18T12:51:09.002Z,56.40
2018-12-18T12:53:37.319Z,59.10
2018-12-18T12:56:05.612Z,57.00
2018-12-18T12:58:34.052Z,57.50
2018-12-18T13:01:02.299Z,56.40
2018-12-18T13:03:30.631Z,56.70
2018-12-18T13:05:58.882Z,57.10
2018-12-18T13:08:27.316Z,56.10
2018-12-18T13:10:55.870Z,57.70
2018-12-18T13:13:24.131Z,54.00
2018-12-18T13:15:52.403Z,54.60
2018-12-18T13:18:21.900Z,54.30
2018-12-18T13:20:50.168Z,54.60
2018-12-18T13:23:18.614Z,51.50
2018-12-18T13:25:47.401Z,54.00
2018-12-18T13:28:15.730Z,54.70
2018-12-18T13:30:44.075Z,53.60
2018-12-18T13:33:12.349Z,54.30
2018-12-18T13:35:40.611Z,52.70
2018-12-18T13:38:09.349Z,52.70
2018-12-18T13:40:37.654Z,53.30
2018-12-18T13:43:05.918Z,53.90
2018-12-18T13:45:34.196Z,52.60
2018-12-18T13:48:02.522Z,53.70
2018-12-18T13:50:30.797Z,54.60
2018-12-18T13:52:59.178Z,54.00
2018-12-18T13:55:27.462Z,55.00
2018-12-18T13:57:55.721Z,55.50
2018-12-18T14:00:23.981Z,55.60
2018-12-18T14:02:52.271Z,55.60
2018-12-18T14:05:20.538Z,55.50
2018-12-18T14:07:50.990Z,55.70
2018-12-18T14:10:19.434Z,55.80
2018-12-18T14:12:53.790Z,56.30
2018-12-18T14:15:22.430Z,56.10
2018-12-18T14:17:51.030Z,56.20
2018-12-18T14:20:19.370Z,56.50
2018-12-18T14:22:47.678Z,56.40
2018-12-18T14:25:15.923Z,56.70
2018-12-18T14:27:44.185Z,56.70
2018-12-18T14:30:12.854Z,56.50
2018-12-18T14:32:41.239Z,56.50
2018-12-18T14:35:09.499Z,57.20
2018-12-18T14:37:37.798Z,57.10
2018-12-18T14:40:06.133Z,57.20
2018-12-18T14:42:34.398Z,56.90
2018-12-18T14:45:02.858Z,57.50
2018-12-18T14:47:31.133Z,57.20
2018-12-18T14:49:59.477Z,57.50
2018-12-18T14:52:29.279Z,57.70
2018-12-18T14:54:57.538Z,57.20
2018-12-18T14:57:25.803Z,58.00
2018-12-18T14:59:54.098Z,58.10
2018-12-18T15:02:22.363Z,57.80
2018-12-18T15:04:50.626Z,58.10
2018-12-18T15:07:18.922Z,57.70
2018-12-18T15:09:47.238Z,58.40
2018-12-18T15:12:15.516Z,57.80
2018-12-18T15:14:43.868Z,58.60
2018-12-18T15:17:12.131Z,58.30
2018-12-18T15:19:40.466Z,58.90
2018-12-18T15:22:08.756Z,58.80
2018-12-18T15:24:37.038Z,58.60
2018-12-18T15:27:05.310Z,59.30
2018-12-18T15:29:33.587Z,59.40
2018-12-18T15:32:02.041Z,59.60
2018-12-18T15:34:30.303Z,59.30
2018-12-18T15:36:58.885Z,59.50
2018-12-18T15:39:27.152Z,59.80
2018-12-18T15:41:55.554Z,59.80
2018-12-18T15:44:23.861Z,59.80
2018-12-18T15:46:52.188Z,59.90
2018-12-18T15:49:20.441Z,60.10
2018-12-18T15:51:48.731Z,59.20
2018-12-18T15:54:16.996Z,60.40
2018-12-18T15:56:45.248Z,60.50
2018-12-18T15:59:13.807Z,60.50
2018-12-18T16:01:42.089Z,60.70
2018-12-18T16:04:11.287Z,60.50
2018-12-18T16:06:39.575Z,61.00
2018-12-18T16:09:08.126Z,61.70
2018-12-18T16:11:36.383Z,61.20
2018-12-18T16:14:04.673Z,61.40
2018-12-18T16:16:33.359Z,61.60
2018-12-18T16:19:01.739Z,60.60
2018-12-18T16:21:30.066Z,60.30
2018-12-18T16:23:58.322Z,61.00
2018-12-18T16:26:26.574Z,60.60
2018-12-18T16:28:54.858Z,61.10
2018-12-18T16:31:23.148Z,61.00
2018-12-18T16:33:51.507Z,61.00
2018-12-18T16:36:19.784Z,61.80
2018-12-18T16:38:48.057Z,62.60
2018-12-18T16:41:16.391Z,62.20
2018-12-18T16:43:46.045Z,61.70
2018-12-18T16:46:14.310Z,62.50
2018-12-18T16:48:42.563Z,62.20
2018-12-18T16:51:10.854Z,63.20
2018-12-18T16:53:39.102Z,62.90
2018-12-18T16:56:07.436Z,62.80
2018-12-18T16:58:35.692Z,63.20
2018-12-18T17:01:03.986Z,63.30
2018-12-18T17:03:32.250Z,63.90
2018-12-18T17:06:00.607Z,62.90
2018-12-18T17:08:28.867Z,62.20
2018-12-18T17:10:57.197Z,62.80
2018-12-18T17:13:25.488Z,63.10
2018-12-18T17:15:53.740Z,63.20
2018-12-18T17:18:22.147Z,63.30
2018-12-18T17:20:50.426Z,64.20
2018-12-18T17:23:18.677Z,64.00
2018-12-18T17:25:46.934Z,64.30
2018-12-18T17:28:15.635Z,62.70
2018-12-18T17:30:47.004Z,64.00
2018-12-18T17:33:15.267Z,65.40
2018-12-18T17:35:43.924Z,63.90
2018-12-18T17:38:12.185Z,64.80
2018-12-18T17:40:40.874Z,64.20
2018-12-18T17:43:09.238Z,66.00
2018-12-18T17:45:37.491Z,65.50
2018-12-18T17:48:05.751Z,65.30
2018-12-18T17:50:34.079Z,65.50
2018-12-18T17:53:02.436Z,65.50
2018-12-18T17:55:30.683Z,65.60
2018-12-18T17:57:58.963Z,65.60
2018-12-18T18:00:27.227Z,65.20
2018-12-18T18:02:55.475Z,64.70
2018-12-18T18:05:23.832Z,65.00
2018-12-18T18:07:53.044Z,65.00
2018-12-18T18:10:21.295Z,65.00
2018-12-18T18:12:49.853Z,66.00
2018-12-18T18:15:18.107Z,65.70
2018-12-18T18:17:46.510Z,65.50
2018-12-18T18:20:14.967Z,64.80
2018-12-18T18:22:43.295Z,65.30
2018-12-18T18:25:11.666Z,65.30
2018-12-18T18:27:40.058Z,64.80
2018-12-18T18:30:08.418Z,64.70
2018-12-18T18:32:36.847Z,64.70
2018-12-18T18:35:05.340Z,64.90
2018-12-18T18:37:33.599Z,64.40
2018-12-18T18:40:02.002Z,64.70
2018-12-18T18:42:30.330Z,65.10
2018-12-18T18:44:58.682Z,64.90
2018-12-18T18:47:31.086Z,64.40
2018-12-18T18:49:59.340Z,64.60
2018-12-18T18:52:27.611Z,65.30
2018-12-18T18:54:56.089Z,64.40
2018-12-18T18:57:24.319Z,64.90
2018-12-18T18:59:52.646Z,65.10
2018-12-18T19:02:20.939Z,64.70
2018-12-18T19:04:49.416Z,65.30
2018-12-18T19:07:17.674Z,65.10
2018-12-18T19:09:45.941Z,64.90
2018-12-18T19:12:14.209Z,64.60
2018-12-18T19:14:42.463Z,65.10
2018-12-18T19:17:10.829Z,64.30
2018-12-18T19:19:39.417Z,65.60
2018-12-18T19:22:07.745Z,64.70
2018-12-18T19:24:36.027Z,64.70
2018-12-18T19:27:04.270Z,64.20
2018-12-18T19:29:32.522Z,64.00
2018-12-18T19:32:01.525Z,64.90
2018-12-18T19:34:29.960Z,64.20
2018-12-18T19:36:58.487Z,65.10
2018-12-18T19:39:27.023Z,65.20
2018-12-18T19:41:55.295Z,65.30
2018-12-18T19:44:23.574Z,64.80
2018-12-18T19:46:51.846Z,64.90
2018-12-18T19:49:20.102Z,65.30
2018-12-18T19:51:48.377Z,65.40
2018-12-18T19:54:16.735Z,65.60
2018-12-18T19:56:45.168Z,65.60
2018-12-18T19:59:13.430Z,65.30
2018-12-18T20:01:41.918Z,65.10
2018-12-18T20:04:10.174Z,65.10
2018-12-18T20:06:38.519Z,65.10
2018-12-18T20:09:07.134Z,64.60
2018-12-18T20:11:37.562Z,64.80
2018-12-18T20:14:05.823Z,65.00
2018-12-18T20:16:34.095Z,64.50
2018-12-18T20:19:02.366Z,64.80
2018-12-18T20:21:30.771Z,65.40
2018-12-18T20:23:59.787Z,65.60
2018-12-18T20:26:28.117Z,66.50
2018-12-18T20:28:56.378Z,65.50
2018-12-18T20:31:24.738Z,65.90
2018-12-18T20:33:52.985Z,65.30
2018-12-18T20:36:21.263Z,66.40
2018-12-18T20:38:49.548Z,65.90
2018-12-18T20:41:17.806Z,65.50
2018-12-18T20:43:46.058Z,66.50
2018-12-18T20:46:15.214Z,66.50
2018-12-18T20:48:43.474Z,66.70
2018-12-18T20:51:11.726Z,66.80
2018-12-18T20:53:40.003Z,66.00
2018-12-18T20:56:08.268Z,66.10
2018-12-18T20:58:36.523Z,65.90
2018-12-18T21:01:04.830Z,65.70
2018-12-18T21:03:33.091Z,65.30
2018-12-18T21:06:01.346Z,66.00
2018-12-18T21:08:30.107Z,66.30
2018-12-18T21:10:58.376Z,65.80
2018-12-18T21:13:28.608Z,66.70
2018-12-18T21:15:57.362Z,66.10
2018-12-18T21:18:25.633Z,66.40
2018-12-18T21:20:54.028Z,66.10
2018-12-18T21:23:22.474Z,66.80
2018-12-18T21:25:50.730Z,66.60
2018-12-18T21:28:18.998Z,67.00
2018-12-18T21:30:47.554Z,66.90
2018-12-18T21:33:15.891Z,66.80
2018-12-18T21:35:44.221Z,67.40
2018-12-18T21:38:12.494Z,66.90
2018-12-18T21:40:40.752Z,67.10
2018-12-18T21:43:08.998Z,67.00
2018-12-18T21:45:37.279Z,67.30
2018-12-18T21:48:05.552Z,66.80
2018-12-18T21:50:33.798Z,67.10
2018-12-18T21:53:02.663Z,67.50
2018-12-18T21:55:30.920Z,67.30
2018-12-18T21:57:59.182Z,66.90
2018-12-18T22:00:27.451Z,66.50
2018-12-18T22:02:55.698Z,66.70
2018-12-18T22:05:23.963Z,66.90
2018-12-18T22:07:52.241Z,67.30
2018-12-18T22:10:20.622Z,68.00
2018-12-18T22:12:48.889Z,67.80
2018-12-18T22:15:17.787Z,67.30
2018-12-18T22:17:46.051Z,67.80
2018-12-18T22:20:14.303Z,67.20
2018-12-18T22:22:42.887Z,66.90
2018-12-18T22:25:11.550Z,66.90
2018-12-18T22:27:40.080Z,67.60
2018-12-18T22:30:08.790Z,66.80
2018-12-18T22:32:37.038Z,67.40
2018-12-18T22:35:05.306Z,66.60
2018-12-18T22:37:33.782Z,67.20
2018-12-18T22:40:02.120Z,67.40
2018-12-18T22:42:30.479Z,66.60
2018-12-18T22:44:58.781Z,66.50
2018-12-18T22:47:27.034Z,66.50
2018-12-18T22:49:55.282Z,66.80
2018-12-18T22:52:23.566Z,67.20
2018-12-18T22:54:51.816Z,66.80
2018-12-18T22:57:20.070Z,66.60
2018-12-18T22:59:48.915Z,66.90
2018-12-18T23:02:17.309Z,66.70
2018-12-18T23:04:46.011Z,67.50
2018-12-18T23:07:14.287Z,67.10
2018-12-18T23:09:42.538Z,67.60
2018-12-18T23:12:10.914Z,67.00
2018-12-18T23:14:39.650Z,66.70
2018-12-18T23:17:08.099Z,66.70
2018-12-18T23:19:36.388Z,67.20
2018-12-18T23:22:04.931Z,67.30
2018-12-18T23:24:33.192Z,66.80
2018-12-18T23:27:01.639Z,67.20
2018-12-18T23:29:30.048Z,67.20
2018-12-18T23:31:58.307Z,67.90
2018-12-18T23:34:32.833Z,67.10
2018-12-18T23:36:56.825Z,67.10
2018-12-18T23:39:25.092Z,68.80
2018-12-18T23:41:53.615Z,67.60
2018-12-18T23:44:23.118Z,67.30
2018-12-18T23:46:51.381Z,68.30
2018-12-18T23:49:19.791Z,67.40
2018-12-18T23:51:48.073Z,67.80
2018-12-18T23:54:16.322Z,68.10
2018-12-18T23:56:44.618Z,67.50
2018-12-18T23:59:14.334Z,67.30
